Time;durP1;ratioP1;P1;durP2;ratioP2;P2;SDS_P1;SDS_P2;PMS_P1;PMS_P2;Temp;Humidity;BMP_temperature;BMP_pressure;BME280_temperature;BME280_humidity;BME280_pressure;Samples;Min_cycle;Max_cycle;Signal;HPM_P1;HPM_P2
2021/06/24 00:01:54;;;;;;;70.32;36.15;;;;;;;14.60;81.12;99741.91;5013017;28;20038;-61
2021/06/24 00:04:20;;;;;;;73.32;36.33;;;;;;;14.59;81.20;99740.31;5013521;28;20030;-61
2021/06/24 00:06:45;;;;;;;70.30;35.10;;;;;;;14.55;81.52;99731.09;5012863;28;20400;-61
2021/06/24 00:09:10;;;;;;;75.90;35.67;;;;;;;14.65;81.27;99740.09;5013248;28;20041;-61
2021/06/24 00:11:36;;;;;;;69.88;35.60;;;;;;;14.75;81.07;99739.38;5009651;28;20092;-61
2021/06/24 00:14:01;;;;;;;64.10;34.97;;;;;;;14.70;81.20;99739.31;5013013;28;20029;-62
2021/06/24 00:16:27;;;;;;;75.65;35.85;;;;;;;14.74;81.17;99737.75;5012765;28;20034;-62
2021/06/24 00:18:53;;;;;;;77.68;38.25;;;;;;;14.64;81.16;99732.25;5013219;28;20033;-61
2021/06/24 00:21:18;;;;;;;65.32;36.00;;;;;;;14.72;81.05;99731.78;5012774;28;20042;-61
2021/06/24 00:23:43;;;;;;;64.35;33.40;;;;;;;14.74;80.73;99729.66;5013145;28;20026;-61
2021/06/24 00:26:09;;;;;;;74.65;36.85;;;;;;;14.72;80.73;99726.38;5012630;28;20145;-61
2021/06/24 00:28:34;;;;;;;71.70;35.42;;;;;;;14.74;81.02;99726.94;5013039;28;20022;-61
2021/06/24 00:31:00;;;;;;;80.20;36.35;;;;;;;14.61;81.28;99722.00;5012725;28;20457;-61
2021/06/24 00:33:25;;;;;;;77.20;37.45;;;;;;;14.54;81.84;99716.78;5011854;28;20029;-61
2021/06/24 00:35:51;;;;;;;73.13;36.78;;;;;;;14.61;81.54;99722.00;5012600;28;20124;-61
2021/06/24 00:38:16;;;;;;;78.22;37.40;;;;;;;14.53;81.92;99719.75;5012908;28;20464;-61
2021/06/24 00:40:42;;;;;;;73.40;38.08;;;;;;;14.37;82.57;99716.06;5011013;28;20088;-61
2021/06/24 00:43:09;;;;;;;70.13;36.97;;;;;;;14.53;81.90;99720.56;5013076;28;20022;-61
2021/06/24 00:45:35;;;;;;;74.10;36.88;;;;;;;14.38;82.48;99709.63;5012615;28;20030;-61
2021/06/24 00:48:01;;;;;;;73.53;36.55;;;;;;;14.36;82.66;99706.38;5012854;28;20056;-62
2021/06/24 00:50:26;;;;;;;81.85;37.90;;;;;;;14.42;82.75;99708.03;5012476;28;20041;-61
2021/06/24 00:52:52;;;;;;;76.47;38.40;;;;;;;14.44;82.50;99709.41;5012761;28;20427;-61
2021/06/24 00:55:17;;;;;;;73.80;37.10;;;;;;;14.48;82.43;99711.56;5012356;28;20465;-61
2021/06/24 00:57:43;;;;;;;77.97;38.03;;;;;;;14.46;82.57;99709.97;5011717;28;20349;-61
2021/06/24 01:00:08;;;;;;;82.20;40.60;;;;;;;14.41;82.37;99711.81;5012149;28;20109;-61
2021/06/24 01:02:34;;;;;;;75.35;37.42;;;;;;;14.39;82.70;99701.25;5012719;28;20560;-61
2021/06/24 01:04:59;;;;;;;85.13;35.97;;;;;;;14.36;82.85;99709.88;5013734;28;20076;-61
2021/06/24 01:07:25;;;;;;;71.90;37.83;;;;;;;14.38;82.78;99694.25;5016312;28;20030;-61
2021/06/24 01:09:51;;;;;;;79.85;38.90;;;;;;;14.39;82.70;99698.56;5016756;28;20468;-61
2021/06/24 01:12:16;;;;;;;73.07;37.90;;;;;;;14.39;82.88;99695.88;5016082;28;20516;-61
2021/06/24 01:14:42;;;;;;;74.10;38.33;;;;;;;14.39;82.95;99693.16;5016962;28;20129;-61
2021/06/24 01:17:07;;;;;;;76.43;37.47;;;;;;;14.43;82.87;99702.38;5015089;28;20037;-61
2021/06/24 01:19:32;;;;;;;76.65;37.95;;;;;;;14.50;82.33;99698.66;5016615;28;20030;-61
2021/06/24 01:21:59;;;;;;;79.28;37.47;;;;;;;14.42;82.88;99698.03;5016129;28;20049;-61
2021/06/24 01:24:24;;;;;;;80.20;39.50;;;;;;;14.45;82.52;99694.03;5016530;28;20026;-61
2021/06/24 01:26:50;;;;;;;77.47;37.05;;;;;;;14.45;82.78;99712.91;5014723;28;20045;-61
2021/06/24 01:29:15;;;;;;;76.18;39.97;;;;;;;14.35;83.01;99705.56;5015086;28;20025;-61
2021/06/24 01:31:41;;;;;;;78.50;40.08;;;;;;;14.28;82.96;99712.19;5016065;28;20088;-61
2021/06/24 01:34:07;;;;;;;83.25;38.60;;;;;;;14.36;82.54;99707.16;5016379;28;20384;-61
2021/06/24 01:36:33;;;;;;;83.72;40.17;;;;;;;14.35;82.49;99710.09;5014613;28;20073;-61
2021/06/24 01:38:58;;;;;;;78.72;42.10;;;;;;;14.21;83.53;99701.63;5016236;28;20057;-61
2021/06/24 01:41:24;;;;;;;76.38;39.33;;;;;;;14.30;83.19;99700.09;5015821;28;20392;-61
2021/06/24 01:43:50;;;;;;;80.03;39.42;;;;;;;14.48;82.35;99708.88;5016246;28;20048;-61
2021/06/24 01:46:15;;;;;;;84.93;41.03;;;;;;;14.45;81.81;99707.50;5014251;28;20424;-61
2021/06/24 01:48:40;;;;;;;79.28;39.92;;;;;;;14.39;82.23;99698.56;5015984;28;20021;-61
2021/06/24 01:51:06;;;;;;;90.22;43.22;;;;;;;14.21;83.28;99704.34;5015566;28;20088;-61
2021/06/24 01:53:31;;;;;;;96.88;42.92;;;;;;;14.18;83.62;99707.53;5015864;28;20037;-61
2021/06/24 01:55:57;;;;;;;82.30;42.08;;;;;;;14.08;83.96;99704.72;5015385;28;20029;-61
2021/06/24 01:58:23;;;;;;;90.05;43.13;;;;;;;14.11;84.00;99701.53;5014682;28;20033;-61
2021/06/24 02:00:49;;;;;;;84.35;42.63;;;;;;;14.17;83.61;99695.91;5013872;28;20061;-61
2021/06/24 02:03:15;;;;;;;86.45;42.38;;;;;;;14.02;84.16;99699.28;5015726;28;20026;-61
2021/06/24 02:05:41;;;;;;;88.78;44.80;;;;;;;13.93;84.57;99690.03;5015177;28;20358;-61
2021/06/24 02:08:19;;;;;;;99.13;45.53;;;;;;;13.88;84.64;99692.69;5015488;28;20521;-61
2021/06/24 02:10:45;;;;;;;95.53;45.03;;;;;;;14.00;84.20;99689.81;5015226;28;20037;-61
2021/06/24 02:13:11;;;;;;;96.43;46.60;;;;;;;13.86;84.74;99688.59;5012221;28;20045;-61
2021/06/24 02:15:36;;;;;;;80.63;42.28;;;;;;;13.90;84.48;99684.31;5014945;28;20177;-61
2021/06/24 02:18:02;;;;;;;101.72;48.08;;;;;;;13.82;85.19;99696.38;5015494;28;20369;-61
2021/06/24 02:20:27;;;;;;;94.32;43.85;;;;;;;13.85;85.26;99686.97;5014951;28;20455;-61
2021/06/24 02:22:53;;;;;;;99.60;45.58;;;;;;;13.80;85.35;99691.25;5015188;28;20026;-61
2021/06/24 02:25:18;;;;;;;95.93;47.05;;;;;;;13.81;85.31;99683.97;5013680;28;20026;-61
2021/06/24 02:27:44;;;;;;;102.97;46.47;;;;;;;13.73;85.58;99687.94;5015147;28;20022;-61
2021/06/24 02:30:10;;;;;;;93.43;46.13;;;;;;;13.70;85.76;99679.53;5014808;28;20030;-61
2021/06/24 02:32:35;;;;;;;98.40;46.30;;;;;;;13.76;85.27;99681.22;5014994;28;20028;-61
2021/06/24 02:35:00;;;;;;;99.60;44.60;;;;;;;13.87;84.78;99677.56;5014581;28;20029;-62
2021/06/24 02:37:26;;;;;;;92.82;46.20;;;;;;;13.85;84.78;99671.59;4997372;28;20480;-61
2021/06/24 02:39:51;;;;;;;91.45;45.70;;;;;;;13.88;84.83;99676.50;5014700;28;20033;-61
2021/06/24 02:42:17;;;;;;;98.25;44.47;;;;;;;13.86;84.87;99672.44;5013166;28;20088;-61
2021/06/24 02:44:42;;;;;;;96.53;45.25;;;;;;;13.88;84.61;99665.72;5014849;28;20029;-61
2021/06/24 02:47:08;;;;;;;95.97;44.50;;;;;;;13.90;84.48;99668.97;5013110;28;20042;-61
2021/06/24 02:49:33;;;;;;;92.60;44.75;;;;;;;13.85;84.80;99665.41;5013682;28;20108;-61
2021/06/24 02:51:59;;;;;;;102.45;45.38;;;;;;;13.80;84.79;99664.31;5014218;28;20034;-61
2021/06/24 02:54:24;;;;;;;88.65;44.05;;;;;;;13.85;85.17;99658.13;5014628;28;20423;-61
2021/06/24 02:56:50;;;;;;;99.35;45.42;;;;;;;13.86;84.77;99661.66;5014245;28;20041;-61
2021/06/24 02:59:15;;;;;;;97.10;45.83;;;;;;;13.82;84.86;99658.66;5014201;28;20026;-61
2021/06/24 03:01:41;;;;;;;97.53;44.40;;;;;;;13.77;85.32;99655.91;5014233;28;20034;-61
2021/06/24 03:04:06;;;;;;;86.00;44.53;;;;;;;13.81;85.01;99649.75;5014559;28;20076;-61
2021/06/24 03:06:33;;;;;;;101.60;43.92;;;;;;;13.67;nan;99653.09;5013949;28;20034;-61
2021/06/24 03:08:59;;;;;;;102.22;48.08;;;;;;;13.64;86.30;99650.91;5013435;28;20037;-61
2021/06/24 03:11:25;;;;;;;93.90;46.13;;;;;;;13.66;85.92;99651.47;5013963;28;20034;-61
2021/06/24 03:13:50;;;;;;;95.65;46.03;;;;;;;13.66;85.77;99657.69;5014443;28;20076;-61
2021/06/24 03:16:16;;;;;;;91.63;46.03;;;;;;;13.64;85.92;99648.22;5013990;28;20042;-61
2021/06/24 03:18:41;;;;;;;96.60;47.20;;;;;;;13.67;86.19;99645.00;5014037;28;20494;-61
2021/06/24 03:21:07;;;;;;;100.03;45.92;;;;;;;13.66;85.94;99652.28;5013730;28;20076;-61
2021/06/24 03:23:32;;;;;;;91.32;44.60;;;;;;;13.74;85.77;99645.63;5014391;28;20076;-61
2021/06/24 03:25:58;;;;;;;90.80;44.15;;;;;;;13.72;85.68;99647.75;5013803;28;20424;-61
2021/06/24 03:28:23;;;;;;;90.22;45.80;;;;;;;13.66;85.81;99641.50;5013440;28;20022;-61
2021/06/24 03:30:49;;;;;;;102.35;47.35;;;;;;;13.63;86.03;99635.81;5013419;28;20040;-61
2021/06/24 03:33:14;;;;;;;91.28;46.25;;;;;;;13.63;86.13;99628.56;5014098;28;20029;-61
2021/06/24 03:35:40;;;;;;;100.90;47.72;;;;;;;13.62;86.23;99634.19;5013617;28;20037;-61
2021/06/24 03:38:05;;;;;;;101.85;48.30;;;;;;;13.57;86.47;99637.63;5013860;28;20464;-61
2021/06/24 03:40:34;;;;;;;97.70;48.47;;;;;;;13.55;86.26;99637.06;5013232;28;20038;-61
2021/06/24 03:42:59;;;;;;;111.20;47.45;;;;;;;13.56;86.56;99636.81;5013967;28;20065;-61
2021/06/24 03:45:25;;;;;;;104.85;47.50;;;;;;;13.50;86.69;99627.03;5013320;28;20049;-61
2021/06/24 03:47:50;;;;;;;112.28;49.15;;;;;;;13.52;86.72;99643.75;5012539;28;20036;-61
2021/06/24 03:50:16;;;;;;;101.90;47.30;;;;;;;13.65;85.88;99633.69;5013123;28;20022;-61
2021/06/24 03:52:41;;;;;;;93.93;46.47;;;;;;;13.62;85.98;99644.97;5013652;28;20053;-61
2021/06/24 03:55:08;;;;;;;102.30;46.00;;;;;;;13.60;86.06;99639.81;5013237;28;20084;-61
2021/06/24 03:57:33;;;;;;;101.28;45.47;;;;;;;13.66;86.04;99635.31;5012227;28;20017;-61
2021/06/24 03:59:59;;;;;;;100.78;47.17;;;;;;;13.68;85.73;99639.38;5011961;28;20326;-61
2021/06/24 04:02:25;;;;;;;109.97;47.13;;;;;;;13.69;85.83;99650.97;5011790;28;20060;-61
2021/06/24 04:04:50;;;;;;;97.80;44.92;;;;;;;13.80;85.74;99658.91;5013381;28;20038;-61
2021/06/24 04:07:15;;;;;;;102.70;46.47;;;;;;;13.62;86.11;99655.72;5012980;28;20038;-61
2021/06/24 04:09:41;;;;;;;105.60;46.90;;;;;;;13.67;86.01;99653.91;5013284;28;20022;-61
2021/06/24 04:12:07;;;;;;;91.18;45.35;;;;;;;13.70;85.78;99647.19;5009629;28;20041;-61
2021/06/24 04:14:32;;;;;;;92.53;44.55;;;;;;;13.66;86.03;99648.78;5013304;28;20022;-61
2021/06/24 04:16:57;;;;;;;101.35;45.33;;;;;;;13.64;86.06;99650.91;5012690;28;20044;-61
2021/06/24 04:19:23;;;;;;;97.72;45.67;;;;;;;13.63;86.35;99649.25;5013131;28;20022;-61
2021/06/24 04:21:48;;;;;;;104.35;47.08;;;;;;;13.69;85.94;99646.38;5011435;28;20052;-61
2021/06/24 04:24:14;;;;;;;91.00;42.88;;;;;;;13.89;84.95;99653.88;5013376;28;20049;-61
2021/06/24 04:26:39;;;;;;;98.25;44.55;;;;;;;13.95;85.05;99655.56;5011429;28;20044;-61
2021/06/24 04:29:05;;;;;;;97.88;44.55;;;;;;;13.91;85.12;99657.13;5013107;28;20041;-61
2021/06/24 04:31:30;;;;;;;95.10;44.38;;;;;;;13.87;85.12;99658.69;5012624;28;20404;-61
2021/06/24 04:33:57;;;;;;;100.93;45.08;;;;;;;13.88;85.44;99657.66;5013008;28;20388;-61
2021/06/24 04:36:22;;;;;;;80.88;44.28;;;;;;;13.95;84.84;99655.56;5012444;28;20484;-61
2021/06/24 04:38:48;;;;;;;103.70;44.90;;;;;;;13.94;84.83;99645.84;5012948;28;20026;-61
2021/06/24 04:41:13;;;;;;;93.55;44.65;;;;;;;14.07;83.92;99641.13;5012550;28;20034;-61
2021/06/24 04:43:38;;;;;;;103.60;45.80;;;;;;;14.01;84.41;99649.16;5011696;28;20033;-61
2021/06/24 04:46:04;;;;;;;100.13;44.60;;;;;;;14.02;84.72;99650.75;5012611;28;20066;-61
2021/06/24 04:48:29;;;;;;;92.50;44.97;;;;;;;13.95;85.01;99649.34;5011535;28;20026;-61
2021/06/24 04:50:55;;;;;;;90.60;44.97;;;;;;;14.10;84.17;99651.38;5011060;28;20034;-61
2021/06/24 04:53:20;;;;;;;102.18;47.47;;;;;;;13.87;85.17;99649.81;5012793;28;20030;-61
2021/06/24 04:55:45;;;;;;;104.07;47.72;;;;;;;13.82;85.59;99650.56;5011085;28;20034;-61
2021/06/24 04:58:11;;;;;;;93.10;44.90;;;;;;;14.12;84.37;99647.34;5012717;28;20037;-61
2021/06/24 05:00:37;;;;;;;100.80;44.83;;;;;;;14.27;83.39;99645.88;5011973;28;20046;-61
2021/06/24 05:03:04;;;;;;;104.63;45.08;;;;;;;13.97;84.70;99648.03;5012785;28;20041;-61
2021/06/24 05:05:30;;;;;;;110.80;45.40;;;;;;;14.10;84.35;99646.00;5011993;28;20110;-61
2021/06/24 05:07:56;;;;;;;92.25;45.22;;;;;;;14.19;83.84;99645.28;5012763;28;20022;-61
2021/06/24 05:10:21;;;;;;;94.95;44.92;;;;;;;14.11;84.43;99636.84;5012295;28;20026;-61
2021/06/24 05:12:47;;;;;;;111.43;48.03;;;;;;;14.00;84.55;99647.53;5012369;28;20025;-61
2021/06/24 05:15:14;;;;;;;103.88;46.05;;;;;;;14.03;84.51;99638.94;5012087;28;20114;-61
2021/06/24 05:17:39;;;;;;;103.10;45.47;;;;;;;14.02;84.72;99645.38;5011178;28;20117;-61
2021/06/24 05:20:08;;;;;;;90.35;43.40;;;;;;;14.27;83.98;99643.19;4978145;28;20025;-61
2021/06/24 05:22:34;;;;;;;104.43;45.03;;;;;;;14.44;83.11;99636.59;5011301;28;20113;-61
2021/06/24 05:25:00;;;;;;;97.55;44.83;;;;;;;14.22;83.21;99638.56;5012509;28;20017;-61
2021/06/24 05:27:25;;;;;;;105.90;45.60;;;;;;;14.21;83.89;99642.34;5010812;28;20081;-61
2021/06/24 05:29:51;;;;;;;105.75;43.35;;;;;;;14.41;83.59;99637.09;5012505;28;20022;-61
2021/06/24 05:32:16;;;;;;;107.88;43.33;;;;;;;14.64;82.09;99635.16;5012126;28;20457;-61
2021/06/24 05:34:42;;;;;;;100.85;44.17;;;;;;;14.36;83.44;99637.06;5012419;28;20022;-61
2021/06/24 05:37:07;;;;;;;80.32;41.40;;;;;;;14.64;82.38;99640.53;5012082;28;20514;-61
2021/06/24 05:39:32;;;;;;;91.25;42.83;;;;;;;14.85;81.27;99636.06;5012498;28;20435;-60
2021/06/24 05:41:58;;;;;;;96.03;42.78;;;;;;;15.08;80.52;99634.88;5011972;28;20034;-61
2021/06/24 05:44:27;;;;;;;84.18;39.50;;;;;;;15.25;79.17;99630.09;5012404;28;20036;-61
2021/06/24 05:46:55;;;;;;;87.80;41.25;;;;;;;15.56;78.59;99634.81;5012062;28;20041;-61
2021/06/24 05:49:20;;;;;;;90.00;39.85;;;;;;;15.56;78.17;99634.81;5012550;28;20061;-61
2021/06/24 05:51:46;;;;;;;87.18;39.45;;;;;;;15.85;76.94;99637.88;5014866;28;20459;-61
2021/06/24 05:54:11;;;;;;;84.18;38.72;;;;;;;15.89;77.00;99633.56;5015920;28;20033;-61
2021/06/24 05:56:37;;;;;;;86.50;41.00;;;;;;;15.67;77.43;99634.56;5015564;28;20034;-61
2021/06/24 05:59:03;;;;;;;88.72;37.88;;;;;;;16.28;75.61;99635.78;5015641;28;20026;-61
2021/06/24 06:01:29;;;;;;;74.28;38.08;;;;;;;16.23;75.69;99633.09;5014169;28;20038;-61
2021/06/24 06:03:55;;;;;;;74.68;38.25;;;;;;;16.58;73.75;99632.25;5014426;28;20100;-61
2021/06/24 06:06:20;;;;;;;84.13;38.60;;;;;;;16.35;74.51;99626.31;5015337;28;20046;-61
2021/06/24 06:08:46;;;;;;;76.18;38.55;;;;;;;16.50;73.99;99628.22;5015001;28;20029;-61
2021/06/24 06:11:12;;;;;;;89.00;38.55;;;;;;;16.31;74.93;99625.22;5012798;28;20044;-61
2021/06/24 06:13:37;;;;;;;77.47;37.25;;;;;;;17.07;72.99;99625.41;5015628;28;20471;-61
2021/06/24 06:16:03;;;;;;;73.85;37.63;;;;;;;17.18;71.85;99622.41;5015020;28;20045;-61
2021/06/24 06:18:28;;;;;;;76.00;37.08;;;;;;;17.33;71.85;99624.25;5015839;28;20029;-61
2021/06/24 06:20:54;;;;;;;74.00;37.35;;;;;;;16.85;72.53;99621.16;5015159;28;20034;-61
2021/06/24 06:23:21;;;;;;;63.80;34.80;;;;;;;17.37;71.55;99621.78;5014241;28;20022;-61
2021/06/24 06:25:46;;;;;;;82.28;37.53;;;;;;;17.28;71.46;99621.56;5014827;28;20033;-61
2021/06/24 06:28:13;;;;;;;79.97;38.58;;;;;;;16.93;72.83;99620.59;5013859;28;20030;-61
2021/06/24 06:30:38;;;;;;;76.57;37.85;;;;;;;16.75;74.23;99623.84;5014828;28;20053;-61
2021/06/24 06:33:04;;;;;;;72.72;39.00;;;;;;;16.11;75.46;99620.63;5014264;28;20380;-61
2021/06/24 06:35:30;;;;;;;72.13;36.42;;;;;;;16.47;74.93;99623.31;5014659;28;20065;-61
2021/06/24 06:37:55;;;;;;;64.60;37.60;;;;;;;16.78;73.82;99623.34;5015111;28;20034;-61
2021/06/24 06:40:21;;;;;;;68.00;37.45;;;;;;;16.54;73.73;99623.84;5014853;28;20041;-61
2021/06/24 06:42:47;;;;;;;71.18;37.58;;;;;;;16.44;74.84;99615.75;5015034;28;20030;-61
2021/06/24 06:45:13;;;;;;;66.05;34.05;;;;;;;16.54;74.90;99623.84;5014491;28;20026;-61
2021/06/24 06:47:39;;;;;;;67.10;36.33;;;;;;;16.28;75.69;99624.97;5014798;28;20022;-61
2021/06/24 06:50:04;;;;;;;65.70;35.30;;;;;;;16.33;76.27;99635.78;4996916;28;20044;-62
2021/06/24 06:52:30;;;;;;;63.20;36.08;;;;;;;16.30;76.29;99633.59;5014847;28;20022;-62
2021/06/24 06:54:55;;;;;;;77.72;37.95;;;;;;;16.39;75.05;99632.00;5014832;28;20526;-61
2021/06/24 06:57:20;;;;;;;73.68;38.72;;;;;;;16.26;75.64;99632.53;5014264;28;20034;-61
2021/06/24 06:59:46;;;;;;;78.38;39.92;;;;;;;15.77;77.69;99635.69;5014221;28;20049;-61
2021/06/24 07:02:12;;;;;;;75.30;39.97;;;;;;;15.98;76.84;99637.38;5011513;28;20038;-61
2021/06/24 07:04:37;;;;;;;102.60;41.70;;;;;;;16.43;75.28;99632.28;5014444;28;20025;-61
2021/06/24 07:07:03;;;;;;;84.05;40.90;;;;;;;16.24;76.20;99629.28;5014049;28;20048;-61
2021/06/24 07:09:29;;;;;;;73.03;39.28;;;;;;;16.56;74.69;99637.94;5014592;28;20026;-61
2021/06/24 07:11:54;;;;;;;55.55;31.73;;;;;;;16.78;74.64;99634.16;5014075;28;20040;-61
2021/06/24 07:14:21;;;;;;;69.43;37.53;;;;;;;16.78;74.84;99639.56;5014518;28;20030;-61
2021/06/24 07:16:46;;;;;;;71.68;38.78;;;;;;;16.50;75.99;99641.75;5013862;28;20064;-61
2021/06/24 07:19:12;;;;;;;74.85;38.55;;;;;;;16.69;74.74;99636.56;5014250;28;20029;-61
2021/06/24 07:21:37;;;;;;;66.15;35.55;;;;;;;16.75;74.54;99634.69;4996259;28;20038;-61
2021/06/24 07:24:03;;;;;;;68.45;36.67;;;;;;;16.67;74.72;99635.22;5014210;28;20041;-61
2021/06/24 07:26:29;;;;;;;71.97;38.55;;;;;;;16.47;75.18;99638.75;5013720;28;20050;-61
2021/06/24 07:28:54;;;;;;;73.72;36.35;;;;;;;16.66;74.64;99630.91;5014147;28;20025;-62
2021/06/24 07:31:19;;;;;;;81.63;38.63;;;;;;;16.57;74.53;99639.56;5013968;28;20041;-61
2021/06/24 07:33:45;;;;;;;72.60;37.67;;;;;;;16.34;76.43;99634.69;5014373;28;20048;-61
2021/06/24 07:36:11;;;;;;;72.25;37.38;;;;;;;16.60;75.14;99628.19;5012745;28;20488;-61
2021/06/24 07:38:36;;;;;;;74.15;36.63;;;;;;;16.54;75.04;99629.28;5013957;28;20655;-61
2021/06/24 07:41:02;;;;;;;64.85;36.85;;;;;;;16.73;74.66;99631.44;5013678;28;20072;-61
2021/06/24 07:43:27;;;;;;;67.10;36.38;;;;;;;16.60;74.28;99632.81;5012708;28;20469;-61
2021/06/24 07:45:53;;;;;;;76.45;39.58;;;;;;;16.45;76.40;99635.50;5013444;28;20042;-61
2021/06/24 07:48:18;;;;;;;67.90;37.88;;;;;;;16.54;74.90;99633.88;5012708;28;20050;-61
2021/06/24 07:50:44;;;;;;;65.45;37.25;;;;;;;16.36;76.03;99632.53;5013465;28;20038;-62
2021/06/24 07:53:09;;;;;;;85.10;41.83;;;;;;;16.11;77.39;99631.44;5012959;28;20037;-61
2021/06/24 07:55:35;;;;;;;68.78;37.15;;;;;;;16.51;75.38;99624.41;5012143;28;20116;-61
2021/06/24 07:58:04;;;;;;;77.90;35.67;;;;;;;16.66;75.72;99625.47;5013718;28;20025;-61
2021/06/24 08:00:31;;;;;;;74.00;37.17;;;;;;;16.68;75.31;99626.03;5009887;28;20042;-61
2021/06/24 08:02:56;;;;;;;65.38;36.25;;;;;;;16.79;75.15;99624.94;5011093;28;20275;-61
2021/06/24 08:05:22;;;;;;;63.05;35.75;;;;;;;17.06;73.98;99626.50;5013554;28;20088;-62
2021/06/24 08:07:49;;;;;;;69.05;35.60;;;;;;;16.84;74.76;99624.13;5012426;28;20472;-61
2021/06/24 08:10:14;;;;;;;63.80;36.38;;;;;;;16.84;74.69;99622.22;5013179;28;20472;-61
2021/06/24 08:12:41;;;;;;;66.10;36.10;;;;;;;16.93;74.04;99623.28;5012206;28;20089;-62
2021/06/24 08:15:08;;;;;;;70.63;36.63;;;;;;;16.94;74.25;99627.63;5013348;28;20083;-61
2021/06/24 08:17:34;;;;;;;72.10;35.15;;;;;;;17.04;74.51;99627.59;5012075;28;20115;-61
2021/06/24 08:19:59;;;;;;;66.43;36.58;;;;;;;17.00;73.74;99626.53;5012364;28;20469;-61
2021/06/24 08:22:25;;;;;;;66.43;37.95;;;;;;;16.80;74.99;99623.88;5013139;28;20485;-61
2021/06/24 08:24:51;;;;;;;77.47;36.45;;;;;;;16.58;76.50;99624.16;5013415;28;20100;-62
2021/06/24 08:27:16;;;;;;;71.20;36.38;;;;;;;16.76;75.14;99620.84;5012979;28;20049;-62
2021/06/24 08:29:42;;;;;;;66.97;35.65;;;;;;;16.68;75.13;99626.03;5011968;28;20030;-62
2021/06/24 08:32:07;;;;;;;64.43;36.35;;;;;;;16.75;74.84;99629.28;5012835;28;20045;-62
2021/06/24 08:34:33;;;;;;;73.60;38.05;;;;;;;16.74;75.54;99625.72;5013245;28;20035;-62
2021/06/24 08:36:59;;;;;;;68.57;33.65;;;;;;;17.12;73.98;99628.09;5013091;28;20041;-62
2021/06/24 08:39:24;;;;;;;74.03;38.58;;;;;;;17.12;74.20;99628.09;4995633;28;20030;-62
2021/06/24 08:41:51;;;;;;;62.35;33.72;;;;;;;17.35;73.06;99630.19;5012732;28;20481;-62
2021/06/24 08:44:18;;;;;;;75.03;36.80;;;;;;;17.36;73.40;99633.72;5013084;28;20049;-61
2021/06/24 08:46:43;;;;;;;59.88;35.80;;;;;;;17.22;73.81;99628.06;5011487;28;20545;-63
2021/06/24 08:49:09;;;;;;;77.90;36.50;;;;;;;17.31;73.65;99631.84;5013136;28;20037;-60
2021/06/24 08:51:34;;;;;;;69.32;38.47;;;;;;;17.11;74.60;99631.91;4994993;28;20515;-62
2021/06/24 08:54:02;;;;;;;60.63;36.63;;;;;;;17.18;73.55;99638.66;5013129;28;20030;-62
2021/06/24 08:56:28;;;;;;;66.55;38.13;;;;;;;16.94;74.44;99635.72;5012379;28;20061;-62
2021/06/24 08:58:55;;;;;;;67.95;38.00;;;;;;;17.00;74.56;99641.97;5013029;28;20029;-62
2021/06/24 09:01:46;;;;;;;76.22;37.92;;;;;;;16.91;75.14;99636.28;5010888;28;20042;-62
2021/06/24 09:04:13;;;;;;;77.30;39.65;;;;;;;16.65;76.49;99630.09;5012058;28;20072;-62
2021/06/24 09:06:39;;;;;;;73.60;38.90;;;;;;;16.63;76.88;99634.97;5012286;28;20592;-62
2021/06/24 09:09:05;;;;;;;69.53;36.10;;;;;;;16.95;75.07;99641.97;5012815;28;20120;-61
2021/06/24 09:11:30;;;;;;;79.80;39.72;;;;;;;16.74;75.96;99633.84;5011051;28;20049;-62
2021/06/24 09:14:15;;;;;;;80.88;39.38;;;;;;;16.84;76.17;99638.47;5013124;28;20065;-62
2021/06/24 09:16:41;;;;;;;84.43;42.15;;;;;;;16.97;75.63;99640.63;4995414;28;20116;-62
2021/06/24 09:19:18;;;;;;;78.03;38.88;;;;;;;16.80;76.45;99638.22;5011481;28;20076;-61
2021/06/24 09:21:45;;;;;;;73.00;37.17;;;;;;;16.91;75.90;99639.00;5012392;28;20404;-61
2021/06/24 09:24:21;;;;;;;78.00;38.67;;;;;;;16.99;75.92;99640.34;5011674;28;20449;-61
2021/06/24 09:26:46;;;;;;;69.95;39.40;;;;;;;16.86;75.85;99639.00;5015443;28;20472;-61
2021/06/24 09:29:16;;;;;;;81.68;41.28;;;;;;;16.93;76.20;99639.53;5016513;28;20064;-61
2021/06/24 09:31:42;;;;;;;76.00;39.87;;;;;;;16.99;75.83;99641.13;5015850;28;20034;-61
2021/06/24 09:34:10;;;;;;;78.07;40.05;;;;;;;17.14;75.94;99637.56;5016247;28;20488;-61
2021/06/24 09:36:44;;;;;;;83.40;42.58;;;;;;;16.88;77.00;99636.84;5015812;28;20062;-61
2021/06/24 09:39:18;;;;;;;83.38;42.65;;;;;;;16.84;76.75;99638.47;5016560;28;20069;-62
2021/06/24 09:42:12;;;;;;;79.50;42.20;;;;;;;17.03;76.30;99644.94;5015794;28;20373;-61
2021/06/24 09:44:38;;;;;;;80.55;42.08;;;;;;;16.96;76.41;99635.47;5015042;28;20465;-61
2021/06/24 09:47:21;;;;;;;68.30;40.28;;;;;;;17.10;75.35;99641.09;5015651;28;20045;-61
2021/06/24 09:50:07;;;;;;;76.78;41.00;;;;;;;17.19;75.10;99642.16;5016669;28;20034;-61
2021/06/24 09:52:32;;;;;;;78.95;40.50;;;;;;;17.25;75.70;99635.66;5015940;28;20511;-61
2021/06/24 09:55:08;;;;;;;79.20;41.67;;;;;;;17.29;75.10;99633.19;5015880;28;20033;-61
2021/06/24 09:57:33;;;;;;;79.85;44.10;;;;;;;16.98;75.80;99639.53;5015622;28;20034;-61
2021/06/24 10:00:18;;;;;;;64.93;41.50;;;;;;;16.98;76.14;99628.69;5015852;28;20052;-62
2021/06/24 10:03:03;;;;;;;78.35;43.15;;;;;;;17.18;76.16;99635.16;5015678;28;20545;-61
2021/06/24 10:05:29;;;;;;;72.10;41.63;;;;;;;17.16;75.98;99631.91;5014171;28;20126;-61
2021/06/24 10:07:54;;;;;;;81.40;43.22;;;;;;;17.21;76.07;99637.28;5013696;28;20041;-62
2021/06/24 10:10:23;;;;;;;74.50;42.13;;;;;;;17.04;76.87;99635.69;5014012;28;20057;-61
2021/06/24 10:12:48;;;;;;;80.60;42.05;;;;;;;17.04;76.97;99643.81;5014425;28;20083;-61
2021/06/24 10:15:15;;;;;;;85.53;44.60;;;;;;;16.69;78.17;99641.16;5013968;28;20026;-61
2021/06/24 10:17:41;;;;;;;83.45;43.78;;;;;;;16.90;77.95;99639.25;5014587;28;20034;-61
2021/06/24 10:20:07;;;;;;;79.72;44.83;;;;;;;17.00;77.57;99637.34;5013695;28;20075;-61
2021/06/24 10:22:33;;;;;;;94.07;46.15;;;;;;;16.94;78.10;99637.63;5014306;28;20022;-61
2021/06/24 10:25:02;;;;;;;84.88;46.38;;;;;;;17.20;78.17;99638.41;5014410;28;20021;-61
2021/06/24 10:27:32;;;;;;;79.65;43.42;;;;;;;17.17;78.03;99638.91;4997794;28;20045;-61
2021/06/24 10:30:13;;;;;;;88.85;46.20;;;;;;;17.30;77.85;99640.22;5014384;28;20041;-62
2021/06/24 10:32:39;;;;;;;97.82;47.97;;;;;;;17.01;79.73;99640.88;5015178;28;20492;-61
2021/06/24 10:35:07;;;;;;;87.97;44.83;;;;;;;17.25;78.98;99636.47;5014761;28;20057;-62
2021/06/24 10:37:32;;;;;;;89.78;47.03;;;;;;;17.37;78.05;99641.59;5015076;28;20490;-61
2021/06/24 10:40:00;;;;;;;96.50;49.33;;;;;;;17.32;79.42;99644.28;5013948;28;20105;-61
2021/06/24 10:42:28;;;;;;;90.50;46.95;;;;;;;17.28;78.88;99637.81;5013594;28;20062;-60
2021/06/24 10:45:01;;;;;;;88.55;46.40;;;;;;;17.37;78.78;99646.16;5014904;28;20484;-60
2021/06/24 10:47:49;;;;;;;95.45;49.10;;;;;;;17.35;79.51;99643.75;5013715;28;20058;-62
2021/06/24 10:50:29;;;;;;;88.78;49.17;;;;;;;17.16;80.32;99642.72;5014487;28;20105;-61
2021/06/24 10:53:06;;;;;;;102.90;49.88;;;;;;;17.18;79.71;99648.69;5014924;28;20033;-60
2021/06/24 10:55:31;;;;;;;96.82;49.88;;;;;;;17.22;81.60;99650.56;5014791;28;20029;-61
2021/06/24 10:57:57;;;;;;;91.55;50.30;;;;;;;17.28;81.68;99648.66;5014787;28;20379;-61
2021/06/24 11:00:40;;;;;;;83.15;48.65;;;;;;;17.30;80.16;99651.91;5012984;28;20042;-61
2021/06/24 11:03:09;;;;;;;103.95;49.38;;;;;;;17.20;77.90;99647.31;5013358;28;20092;-61
2021/06/24 11:05:45;;;;;;;91.50;50.45;;;;;;;17.39;79.72;99650.22;5013503;28;20107;-61
2021/06/24 11:08:12;;;;;;;90.95;50.25;;;;;;;17.40;79.48;99651.06;5015030;28;20032;-62
2021/06/24 11:11:02;;;;;;;90.10;49.70;;;;;;;17.26;79.12;99645.41;5014219;28;20400;-62
2021/06/24 11:18:47;;;;;;;92.15;51.97;;;;;;;17.34;79.22;99644.81;5014344;28;20037;-62
2021/06/24 11:21:28;;;;;;;93.28;51.58;;;;;;;17.23;81.31;99648.66;5013956;28;20045;-62